Aérodrome :
LOGIN :

S'inscrire | Disclaimer

   EN    FR    IT 

 










Légende :    VFR   VFR Marginal   IFR   IFR Intensif   IFR Très Intensif
Visi : 
Plafond : 
>= 8 km
>= 3000ft
5 à 8 km
1000 à 3000 ft
1500m à 5 km
500 à 1000 ft
800 à 1500m
200 à 500 ft
< 800m
< 200 ft
Symboles :   Orages  Brouillard  Fortes neiges  Fortes précipitations  Vent > 20 kt
SIGMETs :   Divers  Orages  Givrage  Turbulence  Onde Orograph.  Cendres Volcan.







- Altitude de l'aérodrome : 527 ft
- Code IATA : DBV


LDDU - Dubrovnik

DERNIER METAR :
  • 240130Z 03025G35KT 340V060 CAVOK 08/M05 Q1025

METARs EXPIRÉS :
  • 240100Z 02028G38KT 340V050 CAVOK 07/M05 Q1025
  • 240030Z 03027G46KT 340V080 CAVOK 08/M05 Q1025
  • 240000Z 03025G36KT 360V070 CAVOK 07/M05 Q1025
  • 232330Z 03028G38KT CAVOK 08/M05 Q1025
  • 232300Z 03027G37KT CAVOK 07/M04 Q1025

TAF TAF LDDU
Valide du 24 à 00h jusqu'au 25 à 00h UTC


232325Z 2400/2500 03020G35KT CAVOK TX10/2413Z TN03/2406Z
PROB30
TEMPO 2400/2402 03030G45KT
BECMG 2404/2406 02015KT
BECMG 2409/2411 VRB02KT
BECMG 2418/2420 02015G28KT
Pas de NOTAMs connus pour ce terrain.



MET'MAP, la Météo Aéronautique d'un coup d'oeil ! - Copyright ORBIFLY Décembre 2007 - Disclaimer

ORBIFLY MET'MAP TEAM :

Programmation & Développement : Alexandra Zaïnal
Conception & Développement : Baudouin d'Aumeries
Co-Programmation & Développement : Marc-Olivier Méhu
Soutien technique & logistique : Manuel Goepfert

Contact : metmap@orbifly.com




SOURCES & CREDITS :

   NOAA